11 de agosto de 2022

Hora Código Tiempo Temp. Visibilidad Cielo nuboso Viento METAR/SPECI
10:53 a. m.
V
66 °F 10 mi - 230° 230° 3 kt METAR KMSS 111453Z AUTO 23003KT 10SM FEW055 19/17 A2991 RMK AO2 LTG DSNT SE SLP128 60000 T01890167 58000
9:53 a. m.
V
66 °F 10 mi 7.000 ft 220° 220° 7 kt METAR KMSS 111353Z AUTO 22007KT 10SM FEW045 SCT050 BKN070 19/16 A2991 RMK AO2 LTG DSNT SW SLP128 T01940161
8:53 a. m.
V
64 °F 10 mi 9.000 ft 220° 220° 10 kt METAR KMSS 111253Z AUTO 22010KT 10SM FEW041 BKN090 OVC110 18/16 A2992 RMK AO2 RAB14E25 SLP130 P0000 T01830156
7:53 a. m.
V
64 °F 10 mi 10.000 ft 230° 230° 5 kt METAR KMSS 111153Z AUTO 23005KT 10SM BKN100 18/16 A2991 RMK AO2 SLP128 T01780156 10178 20144 55002
6:53 a. m.
V
63 °F 10 mi - 220° 220° 5 kt METAR KMSS 111053Z AUTO 22005KT 10SM FEW120 17/15 A2990 RMK AO2 SLP126 T01670150 TSNO
5:53 a. m.
V
61 °F 10 mi - 210° 210° 6 kt METAR KMSS 110953Z AUTO 21006KT 10SM CLR 16/14 A2991 RMK AO2 SLP127 T01560144
4:53 a. m.
V
61 °F 10 mi - 210° 210° 5 kt METAR KMSS 110853Z AUTO 21005KT 10SM CLR 16/14 A2992 RMK AO2 SLP130 T01560139 57013
3:53 a. m.
V
61 °F 10 mi - 200° 200° 5 kt METAR KMSS 110753Z AUTO 20005KT 10SM CLR 16/14 A2993 RMK AO2 SLP134 T01560139
2:53 a. m.
V
61 °F 10 mi - 190° 190° 6 kt METAR KMSS 110653Z AUTO 19006KT 10SM CLR 16/14 A2994 RMK AO2 SLP138 T01560139
1:53 a. m.
V
61 °F 10 mi - Var 000° 0 kt METAR KMSS 110553Z AUTO 00000KT 10SM CLR 16/14 A2995 RMK AO2 SLP143 T01560139 10217 20150 58010
12:53 a. m.
V
61 °F 10 mi - 200° 200° 4 kt METAR KMSS 110453Z AUTO 20004KT 10SM CLR 16/14 A2996 RMK AO2 SLP146 T01610144 402440156

10 de agosto de 2022

Hora Código Tiempo Temp. Visibilidad Cielo nuboso Viento METAR/SPECI
11:53 p. m.
V
61 °F 10 mi - 210° 210° 5 kt METAR KMSS 110353Z AUTO 21005KT 10SM CLR 16/14 A2998 RMK AO2 SLP151 T01610144
10:53 p. m.
V
64 °F 10 mi - 210° 210° 3 kt METAR KMSS 110253Z AUTO 21003KT 10SM CLR 18/15 A2998 RMK AO2 SLP153 T01780150 50001
9:53 p. m.
V
63 °F 10 mi - Var 000° 0 kt METAR KMSS 110153Z AUTO 00000KT 10SM CLR 17/16 A2999 RMK AO2 SLP155 T01720161
8:53 p. m.
V
66 °F 10 mi - Var 000° 0 kt METAR KMSS 110053Z AUTO 00000KT 10SM CLR 19/16 A2998 RMK AO2 SLP153 T01890161
7:53 p. m.
V
72 °F 10 mi - 210° 210° 4 kt METAR KMSS 102353Z AUTO 21004KT 10SM CLR 22/16 A2998 RMK AO2 SLP152 T02170161 10244 20217 56015
6:53 p. m.
V
73 °F 10 mi - 240° 240° 5 kt METAR KMSS 102253Z AUTO 24005KT 10SM CLR 23/15 A2998 RMK AO2 SLP153 T02280150
5:53 p. m.
V
75 °F 10 mi - 280° 280° 7 kt METAR KMSS 102153Z AUTO 28007KT 10SM CLR 24/16 A3000 RMK AO2 SLP159 T02390156
4:53 p. m.
V
75 °F 10 mi - 240° 240° 7 kt METAR KMSS 102053Z AUTO 24007KT 10SM FEW037 24/16 A3003 RMK AO2 SLP167 T02390156 58017
3:53 p. m.
V
73 °F 10 mi 4.600 ft 280° 280° 7 kt METAR KMSS 101953Z AUTO 28007KT 10SM SCT037 OVC046 23/16 A3004 RMK AO2 SLP173 T02280161
2:53 p. m.
V
73 °F 10 mi 4.900 ft 270° 270° 5 kt METAR KMSS 101853Z AUTO 27005KT 10SM SCT039 BKN049 23/15 A3006 RMK AO2 SLP178 T02330150
1:53 p. m.
V
73 °F 10 mi 4.700 ft 230° 230° 6 kt METAR KMSS 101753Z AUTO 23006KT 10SM SCT038 BKN047 23/16 A3007 RMK AO2 SLP184 T02330156 10239 20178 56013
12:53 p. m.
V
73 °F 10 mi - 170° 170° 5 kt METAR KMSS 101653Z AUTO 17005KT 10SM FEW029 23/16 A3009 RMK AO2 SLP187 T02280161
11:53 a. m.
V
70 °F 10 mi 4.000 ft Var 000° 0 kt METAR KMSS 101553Z AUTO 00000KT 10SM OVC040 21/15 A3010 RMK AO2 SLP192 T02110150
10:53 a. m.
V
68 °F 10 mi 4.000 ft 150° 150° 4 kt METAR KMSS 101453Z AUTO 15004KT 10SM OVC040 20/16 A3011 RMK AO2 SLP197 T02000156 50000
9:53 a. m.
V
64 °F 10 mi 3.000 ft 190° 190° 4 kt METAR KMSS 101353Z AUTO 19004KT 10SM BKN030 OVC039 18/16 A3012 RMK AO2 SLP199 T01830161
9:11 a. m.
M
64 °F 5 mi 1.700 ft 260° 260° 3 kt METAR KMSS 101311Z AUTO 26003KT 5SM BR FEW009 OVC017 18/16 A3012 RMK AO2 T01830161
8:53 a. m.
M
64 °F 7 mi 1.600 ft Var 000° 0 kt METAR KMSS 101253Z AUTO 00000KT 7SM BKN016 OVC023 18/16 A3012 RMK AO2 SLP200 T01830156
8:20 a. m.
M
64 °F 9 mi 2.800 ft 010° 010° 3 kt METAR KMSS 101220Z AUTO 01003KT 9SM FEW021 OVC028 18/16 A3012 RMK AO2 T01830156
8:07 a. m.
V
64 °F 8 mi 3.000 ft Var 000° 0 kt METAR KMSS 101207Z AUTO 00000KT 8SM SCT021 BKN030 OVC040 18/16 A3011 RMK AO2 T01780156
7:53 a. m.
M
64 °F 7 mi 2.300 ft Var 000° 0 kt METAR KMSS 101153Z AUTO 00000KT 7SM BKN023 BKN032 OVC040 18/16 A3011 RMK AO2 SLP197 T01780156 10178 20156 53008
7:28 a. m.
V
63 °F 6 mi 3.000 ft Var 000° 0 kt METAR KMSS 101128Z AUTO 00000KT 6SM BR FEW025 OVC030 17/15 A3011 RMK AO2 T01720150
7:19 a. m.
M
63 °F 9 mi 2.800 ft Var 000° 0 kt METAR KMSS 101119Z AUTO 00000KT 9SM OVC028 17/15 A3011 RMK AO2 T01720150
6:53 a. m.
V
63 °F 7 mi 3.100 ft Var 000° 0 kt METAR KMSS 101053Z AUTO 00000KT 7SM BKN031 OVC042 17/15 A3010 RMK AO2 SLP192 T01720150
6:36 a. m.
V
63 °F 7 mi 4.100 ft 020° 020° 4 kt METAR KMSS 101036Z AUTO 02004KT 7SM SCT024 SCT034 OVC041 17/15 A3009 RMK AO2 T01670150
5:53 a. m.
M
61 °F 8 mi 2.600 ft Var 000° 0 kt METAR KMSS 100953Z AUTO 00000KT 8SM BKN026 OVC037 16/15 A3010 RMK AO2 SLP191 T01610150
5:37 a. m.
M
61 °F 7 mi 2.800 ft Var 000° 0 kt METAR KMSS 100937Z AUTO 00000KT 7SM BKN028 OVC037 16/15 A3009 RMK AO2 T01610150
4:53 a. m.
V
61 °F 8 mi 3.000 ft Var 000° 0 kt METAR KMSS 100853Z AUTO 00000KT 8SM BKN030 OVC041 16/15 A3009 RMK AO2 SLP188 T01610150 51007
3:53 a. m.
V
61 °F 9 mi 4.800 ft Var 000° 0 kt METAR KMSS 100753Z AUTO 00000KT 9SM OVC048 16/15 A3009 RMK AO2 SLP188 T01610150
2:53 a. m.
V
61 °F 10 mi 4.800 ft Var 000° 0 kt METAR KMSS 100653Z AUTO 00000KT 10SM FEW038 OVC048 16/15 A3008 RMK AO2 SLP186 T01610150
1:53 a. m.
V
63 °F 10 mi 4.700 ft Var 000° 0 kt METAR KMSS 100553Z AUTO 00000KT 10SM OVC047 17/16 A3007 RMK AO2 SLP182 T01670156 10183 20167 58001
12:53 a. m.
V
63 °F 10 mi 5.000 ft Var 000° 0 kt METAR KMSS 100453Z AUTO 00000KT 10SM OVC050 17/15 A3007 RMK AO2 SLP183 T01670150 402000144

9 de agosto de 2022

Hora Código Tiempo Temp. Visibilidad Cielo nuboso Viento METAR/SPECI
11:53 p. m.
V
63 °F 10 mi 5.000 ft Var 000° 0 kt METAR KMSS 100353Z AUTO 00000KT 10SM OVC050 17/16 A3007 RMK AO2 SLP183 T01720156
10:53 p. m.
V
63 °F 10 mi 5.000 ft Var 000° 0 kt METAR KMSS 100253Z AUTO 00000KT 10SM FEW036 OVC050 17/15 A3007 RMK AO2 SLP182 T01720150 51006
9:53 p. m.
V
63 °F 10 mi 3.400 ft 120° 120° 4 kt METAR KMSS 100153Z AUTO 12004KT 10SM BKN034 BKN043 OVC050 17/15 A3007 RMK AO2 SLP182 T01720150
8:53 p. m.
V
64 °F 10 mi 3.400 ft 090° 090° 4 kt METAR KMSS 100053Z AUTO 09004KT 10SM OVC034 18/16 A3006 RMK AO2 SLP180 T01780156
7:53 p. m.
V
64 °F 10 mi 3.200 ft 110° 110° 3 kt METAR KMSS 092353Z AUTO 11003KT 10SM OVC032 18/16 A3005 RMK AO2 SLP177 60000 T01830156 10200 20178 53010
6:53 p. m.
V
66 °F 10 mi 4.000 ft 080° 080° 5 kt METAR KMSS 092253Z AUTO 08005KT 10SM OVC040 19/15 A3004 RMK AO2 SLP171 T01890150
5:53 p. m.
V
66 °F 10 mi 3.700 ft 090° 090° 5 kt METAR KMSS 092153Z AUTO 09005KT 10SM FEW020 OVC037 19/15 A3003 RMK AO2 SLP169 T01940150
5:40 p. m.
V
66 °F 10 mi 3.500 ft 090° 090° 6 kt METAR KMSS 092140Z AUTO 09006KT 10SM SCT020 OVC035 19/16 A3003 RMK AO2 T01940156
5:32 p. m.
M
66 °F 10 mi 2.000 ft 070° 070° 6 kt METAR KMSS 092132Z AUTO 07006KT 10SM BKN020 BKN033 OVC042 19/16 A3003 RMK AO2 T01940156
5:20 p. m.
V
68 °F 10 mi 3.000 ft 050° 050° 7 kt METAR KMSS 092120Z AUTO 05007KT 10SM FEW018 BKN030 OVC040 20/15 A3002 RMK AO2 T02000150
5:06 p. m.
M
68 °F 10 mi 2.900 ft 070° 070° 3 kt METAR KMSS 092106Z AUTO 07003KT 10SM SCT019 BKN029 OVC060 20/16 A3002 RMK AO2 T02000156
4:53 p. m.
V
66 °F 10 mi 5.500 ft 020° 020° 3 kt METAR KMSS 092053Z AUTO 02003KT 10SM FEW021 SCT035 OVC055 19/16 A3002 RMK AO2 SLP166 60000 T01940156 50003
4:02 p. m.
V
66 °F 10 mi 5.000 ft 180° 180° 4 kt METAR KMSS 092002Z AUTO 18004KT 10SM FEW021 SCT028 OVC050 19/16 A3002 RMK AO2 T01890161
3:53 p. m.
M
64 °F 10 mi 2.800 ft 180° 180° 3 kt METAR KMSS 091953Z AUTO 18003KT 10SM SCT018 BKN028 OVC050 18/16 A3002 RMK AO2 RAB17E44 SLP168 P0000 T01830161
3:43 p. m.
M
64 °F 5 mi 2.200 ft 170° 170° 3 kt METAR KMSS 091943Z AUTO 17003KT 5SM -RA FEW015 BKN022 OVC028 18/16 A3002 RMK AO2 RAB17 P0000 T01830156
3:33 p. m.
I
64 °F 2½ mi 2.200 ft Var 000° 0 kt METAR KMSS 091933Z AUTO 00000KT 2 1/2SM -RA BR SCT015 OVC022 18/16 A3003 RMK AO2 RAB17 P0000 T01780156
3:25 p. m.
I
64 °F 1¾ mi 2.200 ft 040° 040° 3 kt METAR KMSS 091925Z AUTO 04003KT 1 3/4SM -RA SCT015 BKN022 OVC028 18/16 A3003 RMK AO2 VIS 1 1/2V3 RAB17 P0000 T01830156
2:53 p. m.
M
64 °F 10 mi 2.200 ft 190° 190° 4 kt METAR KMSS 091853Z AUTO 19004KT 10SM BKN022 OVC028 18/15 A3001 RMK AO2 SLP164 T01830150
1:53 p. m.
M
66 °F 10 mi 2.500 ft Var 000° 0 kt METAR KMSS 091753Z AUTO 00000KT 10SM BKN025 OVC032 19/15 A3001 RMK AO2 SLP163 60000 T01890150 10194 20150 51007
12:53 p. m.
M
66 °F 10 mi 1.900 ft Var Var 3 kt METAR KMSS 091653Z AUTO VRB03KT 10SM SCT014 BKN019 OVC031 19/16 A3001 RMK AO2 SLP161 T01890156
11:53 a. m.
M
63 °F 8 mi 1.200 ft 020° 020° 5 kt METAR KMSS 091553Z AUTO 02005KT 8SM BKN012 OVC021 17/16 A2999 RMK AO2 RAB1458E08 SLP155 P0000 T01670161
11:16 a. m.
I
63 °F 3 mi 1.600 ft 030° 030° 4 kt METAR KMSS 091516Z AUTO 03004KT 3SM BR FEW007 OVC016 17/16 A2999 RMK AO2 RAB1458E08 P0000 T01670161
11:07 a. m.
I
61 °F 1¾ mi 1.200 ft 020° 020° 7 kt METAR KMSS 091507Z AUTO 02007KT 1 3/4SM -RA BR FEW008 BKN012 OVC017 16/16 A2998 RMK AO2 RAB1458 P0000 T01610156
10:58 a. m.
I
63 °F 2½ mi 1.200 ft 020° 020° 8 kt METAR KMSS 091458Z AUTO 02008KT 2 1/2SM -RA BR BKN012 OVC021 17/16 A2998 RMK AO2 RAB58 P0000 T01720161
10:53 a. m.
M
63 °F 7 mi 1.500 ft 020° 020° 5 kt METAR KMSS 091453Z AUTO 02005KT 7SM BKN015 OVC021 17/17 A2998 RMK AO2 SLP151 60000 T01720167 51023
Datos más antiguos

Nosotros y terceros seguimos tu comportamiento en Internet en nuestro sitio web con cookies. Si continúas, asumimos que estás de acuerdo con nuestra política de cookies. Más información